sensor_id;sensor_type;location;lat;lon;timestamp;P1;durP1;ratioP1;P2;durP2;ratioP2
1350;SDS011;669;50.206;9.998;2024-03-02T00:01:50;18.00;;;11.10;;
1350;SDS011;669;50.206;9.998;2024-03-02T00:04:18;18.13;;;11.57;;
1350;SDS011;669;50.206;9.998;2024-03-02T00:06:46;17.60;;;12.53;;
1350;SDS011;669;50.206;9.998;2024-03-02T00:09:14;16.53;;;11.33;;
1350;SDS011;669;50.206;9.998;2024-03-02T00:11:42;21.27;;;12.43;;
1350;SDS011;669;50.206;9.998;2024-03-02T00:14:12;14.90;;;9.93;;
1350;SDS011;669;50.206;9.998;2024-03-02T00:16:40;15.43;;;10.90;;
1350;SDS011;669;50.206;9.998;2024-03-02T00:19:08;20.00;;;12.83;;
1350;SDS011;669;50.206;9.998;2024-03-02T00:21:36;22.97;;;14.70;;
1350;SDS011;669;50.206;9.998;2024-03-02T00:24:07;24.40;;;14.97;;
1350;SDS011;669;50.206;9.998;2024-03-02T00:26:46;22.57;;;15.77;;
1350;SDS011;669;50.206;9.998;2024-03-02T00:29:16;21.40;;;15.43;;
1350;SDS011;669;50.206;9.998;2024-03-02T00:31:45;18.77;;;12.13;;
1350;SDS011;669;50.206;9.998;2024-03-02T00:34:14;14.37;;;10.40;;
1350;SDS011;669;50.206;9.998;2024-03-02T00:36:44;14.13;;;10.90;;
1350;SDS011;669;50.206;9.998;2024-03-02T00:39:13;18.90;;;11.93;;
1350;SDS011;669;50.206;9.998;2024-03-02T00:41:44;18.23;;;11.43;;
1350;SDS011;669;50.206;9.998;2024-03-02T00:44:12;14.37;;;11.37;;
1350;SDS011;669;50.206;9.998;2024-03-02T00:46:44;17.07;;;11.37;;
1350;SDS011;669;50.206;9.998;2024-03-02T00:49:12;15.57;;;10.70;;
1350;SDS011;669;50.206;9.998;2024-03-02T00:51:48;14.60;;;10.37;;
1350;SDS011;669;50.206;9.998;2024-03-02T00:54:19;18.23;;;11.10;;
1350;SDS011;669;50.206;9.998;2024-03-02T00:56:47;16.80;;;10.93;;
1350;SDS011;669;50.206;9.998;2024-03-02T00:59:15;16.30;;;10.10;;
1350;SDS011;669;50.206;9.998;2024-03-02T01:01:45;17.50;;;11.90;;
1350;SDS011;669;50.206;9.998;2024-03-02T01:04:13;13.87;;;10.83;;
1350;SDS011;669;50.206;9.998;2024-03-02T01:06:41;15.40;;;11.20;;
1350;SDS011;669;50.206;9.998;2024-03-02T01:09:10;17.20;;;11.67;;
1350;SDS011;669;50.206;9.998;2024-03-02T01:11:39;21.37;;;14.00;;
1350;SDS011;669;50.206;9.998;2024-03-02T01:14:07;20.10;;;12.57;;
1350;SDS011;669;50.206;9.998;2024-03-02T01:16:35;16.67;;;12.27;;
1350;SDS011;669;50.206;9.998;2024-03-02T01:19:04;23.57;;;12.80;;
1350;SDS011;669;50.206;9.998;2024-03-02T01:21:32;18.73;;;13.70;;
1350;SDS011;669;50.206;9.998;2024-03-02T01:24:00;20.40;;;11.73;;
1350;SDS011;669;50.206;9.998;2024-03-02T01:26:28;18.43;;;11.83;;
1350;SDS011;669;50.206;9.998;2024-03-02T01:28:57;17.77;;;11.77;;
1350;SDS011;669;50.206;9.998;2024-03-02T01:31:24;16.20;;;10.50;;
1350;SDS011;669;50.206;9.998;2024-03-02T01:33:53;15.80;;;10.60;;
1350;SDS011;669;50.206;9.998;2024-03-02T01:36:22;15.00;;;10.10;;
1350;SDS011;669;50.206;9.998;2024-03-02T01:38:50;15.80;;;10.13;;
1350;SDS011;669;50.206;9.998;2024-03-02T01:41:18;15.43;;;9.90;;
1350;SDS011;669;50.206;9.998;2024-03-02T01:43:46;20.17;;;12.33;;
1350;SDS011;669;50.206;9.998;2024-03-02T01:46:13;20.13;;;12.70;;
1350;SDS011;669;50.206;9.998;2024-03-02T01:48:41;19.47;;;13.10;;
1350;SDS011;669;50.206;9.998;2024-03-02T01:51:09;20.70;;;13.17;;
1350;SDS011;669;50.206;9.998;2024-03-02T01:53:39;17.70;;;11.80;;
1350;SDS011;669;50.206;9.998;2024-03-02T01:56:07;16.33;;;11.63;;
1350;SDS011;669;50.206;9.998;2024-03-02T01:58:35;20.30;;;13.00;;
1350;SDS011;669;50.206;9.998;2024-03-02T02:01:03;20.73;;;13.47;;
1350;SDS011;669;50.206;9.998;2024-03-02T02:03:31;20.23;;;14.73;;
1350;SDS011;669;50.206;9.998;2024-03-02T02:05:59;22.10;;;15.63;;
1350;SDS011;669;50.206;9.998;2024-03-02T02:08:27;23.30;;;15.90;;
1350;SDS011;669;50.206;9.998;2024-03-02T02:10:56;19.23;;;13.53;;
1350;SDS011;669;50.206;9.998;2024-03-02T02:13:24;19.63;;;12.10;;
1350;SDS011;669;50.206;9.998;2024-03-02T02:15:52;18.50;;;13.03;;
1350;SDS011;669;50.206;9.998;2024-03-02T02:18:20;22.70;;;14.70;;
1350;SDS011;669;50.206;9.998;2024-03-02T02:20:48;20.10;;;12.20;;
1350;SDS011;669;50.206;9.998;2024-03-02T02:23:17;18.47;;;13.23;;
1350;SDS011;669;50.206;9.998;2024-03-02T02:25:45;27.27;;;18.00;;
1350;SDS011;669;50.206;9.998;2024-03-02T02:28:13;25.47;;;15.90;;
1350;SDS011;669;50.206;9.998;2024-03-02T02:30:41;24.70;;;16.00;;
1350;SDS011;669;50.206;9.998;2024-03-02T02:33:10;26.30;;;17.10;;
1350;SDS011;669;50.206;9.998;2024-03-02T02:35:38;20.20;;;14.23;;
1350;SDS011;669;50.206;9.998;2024-03-02T02:38:05;21.77;;;14.13;;
1350;SDS011;669;50.206;9.998;2024-03-02T02:40:35;18.93;;;13.07;;
1350;SDS011;669;50.206;9.998;2024-03-02T02:43:03;19.03;;;12.70;;
1350;SDS011;669;50.206;9.998;2024-03-02T02:45:31;18.70;;;12.00;;
1350;SDS011;669;50.206;9.998;2024-03-02T02:47:59;19.93;;;12.33;;
1350;SDS011;669;50.206;9.998;2024-03-02T02:50:28;18.10;;;12.37;;
1350;SDS011;669;50.206;9.998;2024-03-02T02:52:56;18.50;;;13.97;;
1350;SDS011;669;50.206;9.998;2024-03-02T02:55:24;18.50;;;12.27;;
1350;SDS011;669;50.206;9.998;2024-03-02T02:57:54;18.63;;;12.80;;
1350;SDS011;669;50.206;9.998;2024-03-02T03:00:22;18.90;;;11.90;;
1350;SDS011;669;50.206;9.998;2024-03-02T03:02:50;18.63;;;12.33;;
1350;SDS011;669;50.206;9.998;2024-03-02T03:05:18;15.20;;;11.93;;
1350;SDS011;669;50.206;9.998;2024-03-02T03:07:46;16.53;;;12.20;;
1350;SDS011;669;50.206;9.998;2024-03-02T03:10:16;16.40;;;11.20;;
1350;SDS011;669;50.206;9.998;2024-03-02T03:12:46;18.47;;;11.97;;
1350;SDS011;669;50.206;9.998;2024-03-02T03:15:16;17.87;;;12.20;;
1350;SDS011;669;50.206;9.998;2024-03-02T03:17:44;17.07;;;11.60;;
1350;SDS011;669;50.206;9.998;2024-03-02T03:20:13;17.43;;;12.07;;
1350;SDS011;669;50.206;9.998;2024-03-02T03:22:42;17.37;;;11.90;;
1350;SDS011;669;50.206;9.998;2024-03-02T03:25:10;21.47;;;12.80;;
1350;SDS011;669;50.206;9.998;2024-03-02T03:27:38;17.97;;;11.83;;
1350;SDS011;669;50.206;9.998;2024-03-02T03:30:08;19.20;;;12.90;;
1350;SDS011;669;50.206;9.998;2024-03-02T03:32:38;16.27;;;12.20;;
1350;SDS011;669;50.206;9.998;2024-03-02T03:35:06;17.87;;;12.30;;
1350;SDS011;669;50.206;9.998;2024-03-02T03:37:35;21.43;;;13.70;;
1350;SDS011;669;50.206;9.998;2024-03-02T03:40:03;15.67;;;10.97;;
1350;SDS011;669;50.206;9.998;2024-03-02T03:42:36;18.57;;;12.57;;
1350;SDS011;669;50.206;9.998;2024-03-02T03:45:05;16.43;;;12.10;;
1350;SDS011;669;50.206;9.998;2024-03-02T03:47:34;19.67;;;13.73;;
1350;SDS011;669;50.206;9.998;2024-03-02T03:50:04;21.70;;;13.90;;
1350;SDS011;669;50.206;9.998;2024-03-02T03:52:33;19.00;;;11.63;;
1350;SDS011;669;50.206;9.998;2024-03-02T03:55:02;15.93;;;11.47;;
1350;SDS011;669;50.206;9.998;2024-03-02T03:57:31;25.90;;;18.00;;
1350;SDS011;669;50.206;9.998;2024-03-02T03:59:59;17.47;;;11.70;;
1350;SDS011;669;50.206;9.998;2024-03-02T04:02:27;19.97;;;12.33;;
1350;SDS011;669;50.206;9.998;2024-03-02T04:04:55;19.77;;;12.33;;
1350;SDS011;669;50.206;9.998;2024-03-02T04:07:24;19.40;;;12.73;;
1350;SDS011;669;50.206;9.998;2024-03-02T04:09:52;18.33;;;13.00;;
1350;SDS011;669;50.206;9.998;2024-03-02T04:12:20;16.50;;;11.30;;
1350;SDS011;669;50.206;9.998;2024-03-02T04:14:48;14.27;;;9.87;;
1350;SDS011;669;50.206;9.998;2024-03-02T04:17:16;17.23;;;12.07;;
1350;SDS011;669;50.206;9.998;2024-03-02T04:19:44;16.43;;;11.37;;
1350;SDS011;669;50.206;9.998;2024-03-02T04:22:12;20.60;;;13.00;;
1350;SDS011;669;50.206;9.998;2024-03-02T04:24:51;19.57;;;12.40;;
1350;SDS011;669;50.206;9.998;2024-03-02T04:27:19;18.60;;;11.63;;
1350;SDS011;669;50.206;9.998;2024-03-02T04:29:47;16.47;;;10.50;;
1350;SDS011;669;50.206;9.998;2024-03-02T04:32:16;23.50;;;14.70;;
1350;SDS011;669;50.206;9.998;2024-03-02T04:34:45;21.37;;;13.23;;
1350;SDS011;669;50.206;9.998;2024-03-02T04:37:13;17.10;;;11.80;;
1350;SDS011;669;50.206;9.998;2024-03-02T04:39:41;20.37;;;12.60;;
1350;SDS011;669;50.206;9.998;2024-03-02T04:42:11;15.80;;;10.50;;
1350;SDS011;669;50.206;9.998;2024-03-02T04:44:39;17.83;;;11.70;;
1350;SDS011;669;50.206;9.998;2024-03-02T04:47:07;15.33;;;10.40;;
1350;SDS011;669;50.206;9.998;2024-03-02T04:49:35;17.53;;;11.77;;
1350;SDS011;669;50.206;9.998;2024-03-02T04:52:03;18.60;;;11.27;;
1350;SDS011;669;50.206;9.998;2024-03-02T04:54:31;18.07;;;11.00;;
1350;SDS011;669;50.206;9.998;2024-03-02T04:57:01;23.87;;;15.10;;
1350;SDS011;669;50.206;9.998;2024-03-02T04:59:30;24.87;;;16.13;;
1350;SDS011;669;50.206;9.998;2024-03-02T05:01:58;22.27;;;13.00;;
1350;SDS011;669;50.206;9.998;2024-03-02T05:04:26;24.13;;;14.60;;
1350;SDS011;669;50.206;9.998;2024-03-02T05:06:54;18.70;;;12.73;;
1350;SDS011;669;50.206;9.998;2024-03-02T05:09:24;20.40;;;12.43;;
1350;SDS011;669;50.206;9.998;2024-03-02T05:11:52;17.57;;;12.37;;
1350;SDS011;669;50.206;9.998;2024-03-02T05:14:50;26.33;;;15.43;;
1350;SDS011;669;50.206;9.998;2024-03-02T05:17:19;19.90;;;12.13;;
1350;SDS011;669;50.206;9.998;2024-03-02T05:19:46;20.67;;;11.70;;
1350;SDS011;669;50.206;9.998;2024-03-02T05:22:15;21.93;;;13.87;;
1350;SDS011;669;50.206;9.998;2024-03-02T05:24:43;24.07;;;13.43;;
1350;SDS011;669;50.206;9.998;2024-03-02T05:27:11;23.90;;;15.00;;
1350;SDS011;669;50.206;9.998;2024-03-02T05:29:39;22.50;;;15.10;;
1350;SDS011;669;50.206;9.998;2024-03-02T05:32:08;24.20;;;13.33;;
1350;SDS011;669;50.206;9.998;2024-03-02T05:34:37;21.23;;;12.80;;
1350;SDS011;669;50.206;9.998;2024-03-02T05:37:05;20.97;;;13.40;;
1350;SDS011;669;50.206;9.998;2024-03-02T05:39:33;20.30;;;11.77;;
1350;SDS011;669;50.206;9.998;2024-03-02T05:42:01;20.87;;;11.77;;
1350;SDS011;669;50.206;9.998;2024-03-02T05:44:29;22.20;;;13.50;;
1350;SDS011;669;50.206;9.998;2024-03-02T05:46:58;18.70;;;12.83;;
1350;SDS011;669;50.206;9.998;2024-03-02T05:49:27;23.17;;;13.83;;
1350;SDS011;669;50.206;9.998;2024-03-02T05:51:56;21.83;;;14.00;;
1350;SDS011;669;50.206;9.998;2024-03-02T05:54:24;26.07;;;15.50;;
1350;SDS011;669;50.206;9.998;2024-03-02T05:56:52;25.93;;;16.20;;
1350;SDS011;669;50.206;9.998;2024-03-02T05:59:20;27.27;;;15.43;;
1350;SDS011;669;50.206;9.998;2024-03-02T06:01:48;20.43;;;12.93;;
1350;SDS011;669;50.206;9.998;2024-03-02T06:04:17;21.20;;;12.80;;
1350;SDS011;669;50.206;9.998;2024-03-02T06:06:46;15.30;;;10.33;;
1350;SDS011;669;50.206;9.998;2024-03-02T06:09:16;25.13;;;14.40;;
1350;SDS011;669;50.206;9.998;2024-03-02T06:11:44;20.60;;;12.23;;
1350;SDS011;669;50.206;9.998;2024-03-02T06:14:12;17.13;;;12.30;;
1350;SDS011;669;50.206;9.998;2024-03-02T06:16:40;21.90;;;13.97;;
1350;SDS011;669;50.206;9.998;2024-03-02T06:19:08;25.30;;;13.50;;
1350;SDS011;669;50.206;9.998;2024-03-02T06:21:36;30.30;;;16.53;;
1350;SDS011;669;50.206;9.998;2024-03-02T06:24:05;23.77;;;15.00;;
1350;SDS011;669;50.206;9.998;2024-03-02T06:26:33;24.40;;;13.60;;
1350;SDS011;669;50.206;9.998;2024-03-02T06:29:01;24.83;;;14.00;;
1350;SDS011;669;50.206;9.998;2024-03-02T06:31:29;23.03;;;14.20;;
1350;SDS011;669;50.206;9.998;2024-03-02T06:33:57;29.90;;;17.40;;
1350;SDS011;669;50.206;9.998;2024-03-02T06:36:25;25.33;;;16.17;;
1350;SDS011;669;50.206;9.998;2024-03-02T06:38:53;27.77;;;15.40;;
1350;SDS011;669;50.206;9.998;2024-03-02T06:41:22;20.90;;;14.20;;
1350;SDS011;669;50.206;9.998;2024-03-02T06:43:50;21.63;;;13.47;;
1350;SDS011;669;50.206;9.998;2024-03-02T06:46:25;22.27;;;14.60;;
1350;SDS011;669;50.206;9.998;2024-03-02T06:48:53;19.33;;;13.80;;
1350;SDS011;669;50.206;9.998;2024-03-02T06:51:21;26.30;;;15.43;;
1350;SDS011;669;50.206;9.998;2024-03-02T06:53:49;27.13;;;18.20;;
1350;SDS011;669;50.206;9.998;2024-03-02T06:56:17;26.37;;;14.90;;
1350;SDS011;669;50.206;9.998;2024-03-02T06:58:46;22.40;;;13.93;;
1350;SDS011;669;50.206;9.998;2024-03-02T07:01:14;20.83;;;14.10;;
1350;SDS011;669;50.206;9.998;2024-03-02T07:03:42;24.23;;;13.73;;
1350;SDS011;669;50.206;9.998;2024-03-02T07:06:10;22.90;;;14.77;;
1350;SDS011;669;50.206;9.998;2024-03-02T07:08:38;20.97;;;13.53;;
1350;SDS011;669;50.206;9.998;2024-03-02T07:11:06;19.90;;;12.67;;
1350;SDS011;669;50.206;9.998;2024-03-02T07:13:34;24.63;;;15.23;;
1350;SDS011;669;50.206;9.998;2024-03-02T07:16:04;25.43;;;15.20;;
1350;SDS011;669;50.206;9.998;2024-03-02T07:18:49;26.60;;;17.13;;
1350;SDS011;669;50.206;9.998;2024-03-02T07:21:18;27.00;;;16.87;;
1350;SDS011;669;50.206;9.998;2024-03-02T07:23:48;23.20;;;14.30;;
1350;SDS011;669;50.206;9.998;2024-03-02T07:26:16;30.67;;;21.00;;
1350;SDS011;669;50.206;9.998;2024-03-02T07:28:48;27.50;;;18.87;;
1350;SDS011;669;50.206;9.998;2024-03-02T07:31:17;29.90;;;18.97;;
1350;SDS011;669;50.206;9.998;2024-03-02T07:33:45;29.70;;;19.90;;
1350;SDS011;669;50.206;9.998;2024-03-02T07:36:14;28.57;;;17.23;;
1350;SDS011;669;50.206;9.998;2024-03-02T07:38:42;26.07;;;17.30;;
1350;SDS011;669;50.206;9.998;2024-03-02T07:41:11;27.90;;;17.63;;
1350;SDS011;669;50.206;9.998;2024-03-02T07:43:39;40.00;;;22.17;;
1350;SDS011;669;50.206;9.998;2024-03-02T07:46:07;35.20;;;22.43;;
1350;SDS011;669;50.206;9.998;2024-03-02T07:48:36;36.30;;;20.70;;
1350;SDS011;669;50.206;9.998;2024-03-02T07:51:05;24.77;;;15.90;;
1350;SDS011;669;50.206;9.998;2024-03-02T07:53:33;24.47;;;16.50;;
1350;SDS011;669;50.206;9.998;2024-03-02T07:56:01;28.17;;;17.40;;
1350;SDS011;669;50.206;9.998;2024-03-02T07:58:29;32.23;;;18.97;;
1350;SDS011;669;50.206;9.998;2024-03-02T08:00:58;29.20;;;17.63;;
1350;SDS011;669;50.206;9.998;2024-03-02T08:03:28;36.40;;;21.80;;
1350;SDS011;669;50.206;9.998;2024-03-02T08:05:57;28.90;;;18.67;;
1350;SDS011;669;50.206;9.998;2024-03-02T08:08:25;27.53;;;17.30;;
1350;SDS011;669;50.206;9.998;2024-03-02T08:10:53;22.20;;;15.70;;
1350;SDS011;669;50.206;9.998;2024-03-02T08:13:23;24.50;;;16.50;;
1350;SDS011;669;50.206;9.998;2024-03-02T08:15:51;20.27;;;15.17;;
1350;SDS011;669;50.206;9.998;2024-03-02T08:18:19;21.47;;;15.57;;
1350;SDS011;669;50.206;9.998;2024-03-02T08:20:47;21.03;;;15.87;;
1350;SDS011;669;50.206;9.998;2024-03-02T08:23:16;24.87;;;17.30;;
1350;SDS011;669;50.206;9.998;2024-03-02T08:25:45;22.50;;;16.13;;
1350;SDS011;669;50.206;9.998;2024-03-02T08:28:13;28.90;;;18.07;;
1350;SDS011;669;50.206;9.998;2024-03-02T08:30:41;23.40;;;15.10;;
1350;SDS011;669;50.206;9.998;2024-03-02T08:33:09;28.60;;;19.00;;
1350;SDS011;669;50.206;9.998;2024-03-02T08:35:37;21.00;;;13.93;;
1350;SDS011;669;50.206;9.998;2024-03-02T08:38:05;21.43;;;15.23;;
1350;SDS011;669;50.206;9.998;2024-03-02T08:40:34;18.07;;;12.53;;
1350;SDS011;669;50.206;9.998;2024-03-02T08:43:02;17.57;;;13.47;;
1350;SDS011;669;50.206;9.998;2024-03-02T08:45:30;19.27;;;14.50;;
1350;SDS011;669;50.206;9.998;2024-03-02T08:47:58;22.40;;;14.77;;
1350;SDS011;669;50.206;9.998;2024-03-02T08:50:26;20.83;;;13.47;;
1350;SDS011;669;50.206;9.998;2024-03-02T08:52:54;18.87;;;13.73;;
1350;SDS011;669;50.206;9.998;2024-03-02T08:55:22;20.50;;;15.33;;
1350;SDS011;669;50.206;9.998;2024-03-02T08:57:51;22.03;;;16.13;;
1350;SDS011;669;50.206;9.998;2024-03-02T09:00:20;17.90;;;13.87;;
1350;SDS011;669;50.206;9.998;2024-03-02T09:02:48;19.50;;;13.43;;
1350;SDS011;669;50.206;9.998;2024-03-02T09:05:16;27.00;;;18.43;;
1350;SDS011;669;50.206;9.998;2024-03-02T09:07:44;19.03;;;14.67;;
1350;SDS011;669;50.206;9.998;2024-03-02T09:10:12;16.50;;;13.77;;
1350;SDS011;669;50.206;9.998;2024-03-02T09:12:40;25.07;;;17.53;;
1350;SDS011;669;50.206;9.998;2024-03-02T09:15:09;20.80;;;15.23;;
1350;SDS011;669;50.206;9.998;2024-03-02T09:17:37;18.50;;;13.33;;
1350;SDS011;669;50.206;9.998;2024-03-02T09:20:06;18.03;;;14.37;;
1350;SDS011;669;50.206;9.998;2024-03-02T09:22:34;19.60;;;12.93;;
1350;SDS011;669;50.206;9.998;2024-03-02T09:25:02;15.20;;;12.23;;
1350;SDS011;669;50.206;9.998;2024-03-02T09:27:31;14.20;;;12.50;;
1350;SDS011;669;50.206;9.998;2024-03-02T09:29:58;22.23;;;16.47;;
1350;SDS011;669;50.206;9.998;2024-03-02T09:32:28;25.60;;;18.40;;
1350;SDS011;669;50.206;9.998;2024-03-02T09:34:56;18.03;;;13.50;;
1350;SDS011;669;50.206;9.998;2024-03-02T09:37:24;28.20;;;16.73;;
1350;SDS011;669;50.206;9.998;2024-03-02T09:39:53;19.57;;;14.60;;
1350;SDS011;669;50.206;9.998;2024-03-02T09:42:21;17.80;;;14.93;;
1350;SDS011;669;50.206;9.998;2024-03-02T09:44:50;20.87;;;14.80;;
1350;SDS011;669;50.206;9.998;2024-03-02T09:47:18;20.67;;;15.90;;
1350;SDS011;669;50.206;9.998;2024-03-02T09:49:48;18.67;;;14.57;;
1350;SDS011;669;50.206;9.998;2024-03-02T09:52:16;17.90;;;14.33;;
1350;SDS011;669;50.206;9.998;2024-03-02T09:54:44;21.47;;;16.50;;
1350;SDS011;669;50.206;9.998;2024-03-02T09:57:14;16.47;;;12.33;;
1350;SDS011;669;50.206;9.998;2024-03-02T09:59:43;22.07;;;16.17;;
1350;SDS011;669;50.206;9.998;2024-03-02T10:02:11;17.40;;;13.13;;
1350;SDS011;669;50.206;9.998;2024-03-02T10:04:39;18.27;;;14.20;;
1350;SDS011;669;50.206;9.998;2024-03-02T10:07:12;17.27;;;14.43;;
1350;SDS011;669;50.206;9.998;2024-03-02T10:09:41;19.20;;;14.97;;
1350;SDS011;669;50.206;9.998;2024-03-02T10:12:12;18.77;;;15.63;;
1350;SDS011;669;50.206;9.998;2024-03-02T10:14:40;16.60;;;14.03;;
1350;SDS011;669;50.206;9.998;2024-03-02T10:17:09;15.40;;;13.10;;
1350;SDS011;669;50.206;9.998;2024-03-02T10:19:38;22.50;;;16.50;;
1350;SDS011;669;50.206;9.998;2024-03-02T10:22:07;14.23;;;12.73;;
1350;SDS011;669;50.206;9.998;2024-03-02T10:24:38;16.00;;;11.87;;
1350;SDS011;669;50.206;9.998;2024-03-02T10:27:08;15.60;;;13.03;;
1350;SDS011;669;50.206;9.998;2024-03-02T10:29:37;16.20;;;11.70;;
1350;SDS011;669;50.206;9.998;2024-03-02T10:32:07;19.00;;;14.03;;
1350;SDS011;669;50.206;9.998;2024-03-02T10:34:37;18.87;;;14.50;;
1350;SDS011;669;50.206;9.998;2024-03-02T10:37:07;18.80;;;14.30;;
1350;SDS011;669;50.206;9.998;2024-03-02T10:39:35;24.00;;;16.37;;
1350;SDS011;669;50.206;9.998;2024-03-02T10:42:07;19.33;;;15.73;;
1350;SDS011;669;50.206;9.998;2024-03-02T10:44:35;20.37;;;15.27;;
1350;SDS011;669;50.206;9.998;2024-03-02T10:47:04;20.70;;;15.93;;
1350;SDS011;669;50.206;9.998;2024-03-02T10:49:33;17.70;;;13.70;;
1350;SDS011;669;50.206;9.998;2024-03-02T10:52:01;13.90;;;11.93;;
1350;SDS011;669;50.206;9.998;2024-03-02T10:54:30;17.07;;;12.90;;
1350;SDS011;669;50.206;9.998;2024-03-02T10:57:05;15.90;;;12.27;;
1350;SDS011;669;50.206;9.998;2024-03-02T10:59:37;17.60;;;14.07;;
1350;SDS011;669;50.206;9.998;2024-03-02T11:02:09;17.13;;;14.47;;
1350;SDS011;669;50.206;9.998;2024-03-02T11:04:39;16.80;;;14.50;;
1350;SDS011;669;50.206;9.998;2024-03-02T11:07:09;15.30;;;12.70;;
1350;SDS011;669;50.206;9.998;2024-03-02T11:09:38;15.17;;;11.60;;
1350;SDS011;669;50.206;9.998;2024-03-02T11:12:19;18.83;;;14.10;;
1350;SDS011;669;50.206;9.998;2024-03-02T11:14:50;14.30;;;10.53;;
1350;SDS011;669;50.206;9.998;2024-03-02T11:17:19;13.60;;;11.63;;
1350;SDS011;669;50.206;9.998;2024-03-02T11:19:47;12.23;;;10.80;;
1350;SDS011;669;50.206;9.998;2024-03-02T11:22:16;13.37;;;12.00;;
1350;SDS011;669;50.206;9.998;2024-03-02T11:24:48;12.57;;;10.70;;
1350;SDS011;669;50.206;9.998;2024-03-02T11:33:25;11.87;;;10.17;;
1350;SDS011;669;50.206;9.998;2024-03-02T11:35:56;12.90;;;11.60;;
1350;SDS011;669;50.206;9.998;2024-03-02T11:38:27;12.33;;;10.63;;
1350;SDS011;669;50.206;9.998;2024-03-02T11:41:00;11.40;;;9.07;;
1350;SDS011;669;50.206;9.998;2024-03-02T11:43:29;11.40;;;10.00;;
1350;SDS011;669;50.206;9.998;2024-03-02T11:46:00;11.97;;;9.67;;
1350;SDS011;669;50.206;9.998;2024-03-02T11:48:34;13.33;;;11.17;;
1350;SDS011;669;50.206;9.998;2024-03-02T11:51:03;12.00;;;10.80;;
1350;SDS011;669;50.206;9.998;2024-03-02T11:53:31;12.70;;;10.60;;
1350;SDS011;669;50.206;9.998;2024-03-02T11:56:02;12.30;;;10.37;;
1350;SDS011;669;50.206;9.998;2024-03-02T11:58:33;12.50;;;11.20;;
1350;SDS011;669;50.206;9.998;2024-03-02T12:01:05;10.57;;;9.57;;
1350;SDS011;669;50.206;9.998;2024-03-02T12:03:33;10.57;;;9.47;;
1350;SDS011;669;50.206;9.998;2024-03-02T12:06:02;11.30;;;9.40;;
1350;SDS011;669;50.206;9.998;2024-03-02T12:08:32;9.10;;;8.10;;
1350;SDS011;669;50.206;9.998;2024-03-02T12:11:00;10.27;;;9.27;;
1350;SDS011;669;50.206;9.998;2024-03-02T12:13:30;9.87;;;8.67;;
1350;SDS011;669;50.206;9.998;2024-03-02T12:15:59;11.40;;;10.20;;
1350;SDS011;669;50.206;9.998;2024-03-02T12:18:29;8.37;;;7.50;;
1350;SDS011;669;50.206;9.998;2024-03-02T12:20:57;10.43;;;7.13;;
1350;SDS011;669;50.206;9.998;2024-03-02T12:23:25;9.37;;;8.37;;
1350;SDS011;669;50.206;9.998;2024-03-02T12:25:53;7.90;;;7.17;;
1350;SDS011;669;50.206;9.998;2024-03-02T12:28:22;9.50;;;8.60;;
1350;SDS011;669;50.206;9.998;2024-03-02T12:30:49;9.20;;;8.40;;
1350;SDS011;669;50.206;9.998;2024-03-02T12:33:18;8.93;;;7.20;;
1350;SDS011;669;50.206;9.998;2024-03-02T12:35:50;10.87;;;8.67;;
1350;SDS011;669;50.206;9.998;2024-03-02T12:38:17;10.90;;;9.73;;
1350;SDS011;669;50.206;9.998;2024-03-02T12:40:47;11.53;;;9.50;;
1350;SDS011;669;50.206;9.998;2024-03-02T12:43:15;8.70;;;7.80;;
1350;SDS011;669;50.206;9.998;2024-03-02T12:45:43;8.70;;;7.90;;
1350;SDS011;669;50.206;9.998;2024-03-02T12:48:11;6.27;;;5.60;;
1350;SDS011;669;50.206;9.998;2024-03-02T12:50:41;7.13;;;5.13;;
1350;SDS011;669;50.206;9.998;2024-03-02T12:53:15;6.80;;;6.20;;
1350;SDS011;669;50.206;9.998;2024-03-02T12:55:43;8.57;;;7.70;;
1350;SDS011;669;50.206;9.998;2024-03-02T12:58:16;10.33;;;9.30;;
1350;SDS011;669;50.206;9.998;2024-03-02T13:00:44;9.53;;;8.33;;
1350;SDS011;669;50.206;9.998;2024-03-02T13:03:13;8.37;;;6.60;;
1350;SDS011;669;50.206;9.998;2024-03-02T13:05:47;7.33;;;6.53;;
1350;SDS011;669;50.206;9.998;2024-03-02T13:08:17;8.97;;;7.80;;
1350;SDS011;669;50.206;9.998;2024-03-02T13:10:45;5.80;;;5.17;;
1350;SDS011;669;50.206;9.998;2024-03-02T13:13:13;7.23;;;6.43;;
1350;SDS011;669;50.206;9.998;2024-03-02T13:15:42;6.50;;;5.90;;
1350;SDS011;669;50.206;9.998;2024-03-02T13:18:10;6.10;;;5.50;;
1350;SDS011;669;50.206;9.998;2024-03-02T13:20:39;8.67;;;7.73;;
1350;SDS011;669;50.206;9.998;2024-03-02T13:23:07;5.27;;;4.77;;
1350;SDS011;669;50.206;9.998;2024-03-02T13:25:37;6.50;;;5.73;;
1350;SDS011;669;50.206;9.998;2024-03-02T13:28:05;5.87;;;5.27;;
1350;SDS011;669;50.206;9.998;2024-03-02T13:30:35;5.00;;;4.53;;
1350;SDS011;669;50.206;9.998;2024-03-02T13:33:03;5.60;;;5.00;;
1350;SDS011;669;50.206;9.998;2024-03-02T13:35:31;6.17;;;5.60;;
1350;SDS011;669;50.206;9.998;2024-03-02T13:37:59;5.50;;;4.13;;
1350;SDS011;669;50.206;9.998;2024-03-02T13:40:27;3.40;;;3.10;;
1350;SDS011;669;50.206;9.998;2024-03-02T13:42:57;3.80;;;3.50;;
1350;SDS011;669;50.206;9.998;2024-03-02T13:45:25;3.93;;;3.53;;
1350;SDS011;669;50.206;9.998;2024-03-02T13:47:54;4.07;;;3.77;;
1350;SDS011;669;50.206;9.998;2024-03-02T13:50:22;2.73;;;2.53;;
1350;SDS011;669;50.206;9.998;2024-03-02T13:52:50;4.00;;;3.60;;
1350;SDS011;669;50.206;9.998;2024-03-02T13:55:17;4.87;;;3.90;;
1350;SDS011;669;50.206;9.998;2024-03-02T13:57:46;2.47;;;2.27;;
1350;SDS011;669;50.206;9.998;2024-03-02T14:00:18;2.90;;;2.70;;
1350;SDS011;669;50.206;9.998;2024-03-02T14:02:46;2.73;;;2.53;;
1350;SDS011;669;50.206;9.998;2024-03-02T14:05:16;4.80;;;3.83;;
1350;SDS011;669;50.206;9.998;2024-03-02T14:07:45;3.43;;;3.13;;
1350;SDS011;669;50.206;9.998;2024-03-02T14:10:13;2.80;;;2.57;;
1350;SDS011;669;50.206;9.998;2024-03-02T14:12:42;2.33;;;2.20;;
1350;SDS011;669;50.206;9.998;2024-03-02T14:15:10;3.00;;;2.70;;
1350;SDS011;669;50.206;9.998;2024-03-02T14:17:39;2.70;;;2.50;;
1350;SDS011;669;50.206;9.998;2024-03-02T14:20:09;4.17;;;3.77;;
1350;SDS011;669;50.206;9.998;2024-03-02T14:22:38;5.27;;;4.40;;
1350;SDS011;669;50.206;9.998;2024-03-02T14:25:07;4.40;;;3.40;;
1350;SDS011;669;50.206;9.998;2024-03-02T14:27:35;3.53;;;3.27;;
1350;SDS011;669;50.206;9.998;2024-03-02T14:30:23;5.00;;;4.50;;
1350;SDS011;669;50.206;9.998;2024-03-02T14:32:53;3.30;;;3.07;;
1350;SDS011;669;50.206;9.998;2024-03-02T14:35:21;4.27;;;3.43;;
1350;SDS011;669;50.206;9.998;2024-03-02T14:37:49;5.27;;;4.70;;
1350;SDS011;669;50.206;9.998;2024-03-02T14:40:17;6.00;;;5.40;;
1350;SDS011;669;50.206;9.998;2024-03-02T14:42:46;6.03;;;5.37;;
1350;SDS011;669;50.206;9.998;2024-03-02T14:45:14;9.70;;;6.23;;
1350;SDS011;669;50.206;9.998;2024-03-02T14:47:42;5.80;;;5.20;;
1350;SDS011;669;50.206;9.998;2024-03-02T14:50:12;6.27;;;4.20;;
1350;SDS011;669;50.206;9.998;2024-03-02T14:52:43;6.00;;;5.40;;
1350;SDS011;669;50.206;9.998;2024-03-02T14:55:11;5.17;;;4.67;;
1350;SDS011;669;50.206;9.998;2024-03-02T14:57:40;7.60;;;4.23;;
1350;SDS011;669;50.206;9.998;2024-03-02T15:00:08;6.10;;;4.50;;
1350;SDS011;669;50.206;9.998;2024-03-02T15:02:37;5.57;;;4.53;;
1350;SDS011;669;50.206;9.998;2024-03-02T15:05:06;5.50;;;4.40;;
1350;SDS011;669;50.206;9.998;2024-03-02T15:07:35;5.83;;;5.23;;
1350;SDS011;669;50.206;9.998;2024-03-02T15:10:04;5.47;;;4.97;;
1350;SDS011;669;50.206;9.998;2024-03-02T15:12:33;6.97;;;6.27;;
1350;SDS011;669;50.206;9.998;2024-03-02T15:15:01;5.20;;;4.70;;
1350;SDS011;669;50.206;9.998;2024-03-02T15:17:29;8.93;;;5.23;;
1350;SDS011;669;50.206;9.998;2024-03-02T15:19:58;5.03;;;4.37;;
1350;SDS011;669;50.206;9.998;2024-03-02T15:22:26;6.33;;;5.37;;
1350;SDS011;669;50.206;9.998;2024-03-02T15:24:55;5.47;;;4.87;;